»·PEaware :: DAL448 KSEA-KMFR

DAL448 :: KSEA-KMFR

FLIGHT INFORMATION

Flight Status: Arrived
Operator:
Delta Air Lines
More flights by this operator :: More flights under this callsign
Pilot: Gord H. (12075)
Aircraft: AIRBUS A319
(A319)
More flights by this aircraft type
Origin: KSEA Seattle-Tacoma Intl
United States
Destination: KMFR Rogue Valley Intl-Medford
United States
More flights between these airports :: More routes between these airports
Route: HAROB6 FEPOT OED
File this flight plan on PilotEdge
Remarks:
Altitude:
(Current/Filed)
35,000ft
Speed:
(Current/Filed)
450kts
Departed: 21-Aug-18 08:12 PM
Arrived: 21-Aug-18 09:09 PM
Distance/Time
Traveled:
306nm/0:57
Distance/Time
To Go:
Arrived

Flight Plot

Page will automatically refresh every two minutes.

Flight plan parsing failed; only flown route is shown


Map Options




Map Legend


Flown Route
Filed Route
Departure Airport
Arrival Airport
Navaid (VOR, NDB)
Fix

Horizontal Profiles

Position Reports

Time Latitude Longitude Heading Altitude Ground
Speed
21-Aug-18 19:49 47.441987 -122.304528 90 442ft 0kts
21-Aug-18 19:50 47.441987 -122.304528 90 442ft 0kts
21-Aug-18 19:51 47.441987 -122.304528 90 442ft 0kts
21-Aug-18 19:52 47.441987 -122.304528 90 442ft 0kts
21-Aug-18 19:53 47.441987 -122.304528 90 442ft 0kts
21-Aug-18 19:54 47.441987 -122.304528 90 442ft 0kts
21-Aug-18 19:55 47.441987 -122.304529 90 442ft 0kts
21-Aug-18 19:56 47.441987 -122.304529 90 442ft 0kts
21-Aug-18 19:57 47.441987 -122.304529 90 442ft 0kts
21-Aug-18 19:58 47.441987 -122.304529 90 442ft 0kts
21-Aug-18 19:59 47.441987 -122.304528 90 442ft 0kts
21-Aug-18 20:00 47.441987 -122.304529 90 442ft 0kts
21-Aug-18 20:01 47.441987 -122.304529 90 442ft 0kts
21-Aug-18 20:02 47.441987 -122.304702 90 442ft 2kts
21-Aug-18 20:03 47.442336 -122.305425 177 442ft 0kts
21-Aug-18 20:04 47.442411 -122.305423 180 442ft 0kts
21-Aug-18 20:05 47.442411 -122.305423 180 442ft 0kts
21-Aug-18 20:06 47.442411 -122.305423 180 442ft 0kts
21-Aug-18 20:07 47.442411 -122.305423 180 442ft 0kts
21-Aug-18 20:08 47.442231 -122.305425 180 442ft 6kts
21-Aug-18 20:09 47.439264 -122.306390 180 442ft 12kts
21-Aug-18 20:10 47.435417 -122.305577 179 442ft 12kts
21-Aug-18 20:11 47.431773 -122.306630 258 442ft 7kts
21-Aug-18 20:12 47.431754 -122.306790 260 442ft 2kts
21-Aug-18 20:13 47.434431 -122.308038 0 442ft 60kts
21-Aug-18 20:14 47.473209 -122.307339 0 1818ft 169kts
21-Aug-18 20:15 47.526058 -122.308089 357 3836ft 228kts
21-Aug-18 20:16 47.586941 -122.341342 325 6451ft 276kts
21-Aug-18 20:17 47.616901 -122.442985 272 9814ft 294kts
21-Aug-18 20:18 47.568938 -122.547580 225 11830ft 349kts
21-Aug-18 20:19 47.500969 -122.650140 225 14626ft 364kts
21-Aug-18 20:20 47.433862 -122.752588 225 16926ft 378kts
21-Aug-18 20:21 47.360685 -122.863602 225 19075ft 391kts
21-Aug-18 20:22 47.284330 -122.978817 225 21106ft 403kts
21-Aug-18 20:23 47.200991 -123.087325 216 22973ft 413kts
21-Aug-18 20:24 47.109118 -123.187508 214 24671ft 423kts
21-Aug-18 20:25 46.997103 -123.213720 175 26171ft 430kts
21-Aug-18 20:26 46.882777 -123.204632 174 28080ft 424kts
21-Aug-18 20:27 46.775378 -123.196778 173 29654ft 420kts
21-Aug-18 20:28 46.659450 -123.188418 173 30786ft 428kts
21-Aug-18 20:29 46.553427 -123.180864 173 31719ft 434kts
21-Aug-18 20:30 46.435650 -123.172549 173 32659ft 441kts
21-Aug-18 20:31 46.313175 -123.163927 173 33537ft 447kts
21-Aug-18 20:32 46.188452 -123.155186 173 34348ft 454kts
21-Aug-18 20:33 46.063618 -123.146484 173 35013ft 459kts
21-Aug-18 20:34 45.937868 -123.137788 173 35024ft 458kts
21-Aug-18 20:35 45.821732 -123.129824 173 35019ft 458kts
21-Aug-18 20:36 45.704770 -123.121853 173 35012ft 458kts
21-Aug-18 20:37 45.578361 -123.113207 173 35011ft 458kts
21-Aug-18 20:38 45.453918 -123.104725 173 35013ft 458kts
21-Aug-18 20:39 45.331696 -123.096434 173 35010ft 458kts
21-Aug-18 20:40 45.210818 -123.088270 173 35002ft 458kts
21-Aug-18 20:41 45.087349 -123.079982 173 34996ft 459kts
21-Aug-18 20:42 44.961589 -123.071602 172 34982ft 466kts
21-Aug-18 20:43 44.840874 -123.063566 172 34967ft 468kts
21-Aug-18 20:44 44.722676 -123.055794 172 34969ft 468kts
21-Aug-18 20:45 44.593572 -123.047226 172 34972ft 468kts
21-Aug-18 20:46 44.473029 -123.039285 172 34974ft 468kts
21-Aug-18 20:47 44.347068 -123.031083 172 33723ft 461kts
21-Aug-18 20:48 44.223713 -123.022962 172 31693ft 452kts
21-Aug-18 20:49 44.103873 -123.015153 173 29599ft 447kts
21-Aug-18 20:50 43.983577 -123.007365 174 27530ft 440kts
21-Aug-18 20:51 43.866149 -122.999778 174 25415ft 433kts
21-Aug-18 20:52 43.756548 -122.992802 175 23436ft 424kts
21-Aug-18 20:53 43.640205 -122.985349 176 20982ft 422kts
21-Aug-18 20:54 43.525363 -122.978004 176 18536ft 416kts
21-Aug-18 20:55 43.412097 -122.970816 177 16084ft 406kts
21-Aug-18 20:56 43.303615 -122.963968 177 13934ft 389kts
21-Aug-18 20:57 43.200216 -122.957449 177 12439ft 357kts
21-Aug-18 20:58 43.107676 -122.961996 186 11786ft 310kts
21-Aug-18 20:59 43.016814 -122.973454 184 11008ft 270kts
21-Aug-18 21:00 42.955563 -122.980565 184 10046ft 260kts
21-Aug-18 21:01 42.885484 -122.988567 183 9758ft 266kts
21-Aug-18 21:02 42.814429 -122.996670 183 8602ft 259kts
21-Aug-18 21:03 42.743976 -123.004667 183 7493ft 255kts
21-Aug-18 21:04 42.675120 -123.012469 183 7082ft 242kts
21-Aug-18 21:05 42.610532 -122.997332 156 6895ft 236kts
21-Aug-18 21:06 42.549899 -122.964880 157 5784ft 222kts
21-Aug-18 21:07 42.495546 -122.936409 158 4213ft 201kts
21-Aug-18 21:08 42.446764 -122.910891 157 2630ft 174kts
21-Aug-18 21:09 42.406873 -122.890022 158 1841ft 149kts
21-Aug-18 21:10 42.374774 -122.873210 160 1342ft 31kts
21-Aug-18 21:11 42.370960 -122.872735 157 1342ft 20kts
21-Aug-18 21:12 42.368982 -122.873496 247 1342ft 0kts

Navigation Log

Ident Type
Flight plan parsing failed, navigation log unavailable